createdAt,value
2022-11-24T00:00:59.194Z,3.67
2022-11-24T00:01:59.241Z,3.67
2022-11-24T00:02:59.301Z,3.63
2022-11-24T00:03:59.145Z,3.70
2022-11-24T00:04:59.130Z,3.67
2022-11-24T00:05:59.122Z,3.69
2022-11-24T00:06:59.109Z,3.72
2022-11-24T00:07:59.123Z,3.74
2022-11-24T00:08:59.118Z,3.66
2022-11-24T00:09:59.075Z,3.80
2022-11-24T00:10:59.068Z,3.78
2022-11-24T00:11:59.059Z,3.78
2022-11-24T00:12:59.040Z,3.74
2022-11-24T00:13:59.068Z,3.80
2022-11-24T00:14:59.026Z,3.73
2022-11-24T00:15:59.015Z,3.82
2022-11-24T00:16:59.061Z,3.82
2022-11-24T00:17:58.998Z,3.81
2022-11-24T00:18:59.010Z,3.82
2022-11-24T00:19:58.971Z,3.85
2022-11-24T00:20:58.958Z,3.80
2022-11-24T00:21:58.950Z,3.80
2022-11-24T00:22:58.941Z,3.82
2022-11-24T00:23:58.969Z,3.82
2022-11-24T00:24:58.921Z,3.85
2022-11-24T00:25:58.905Z,3.81
2022-11-24T00:26:58.890Z,3.81
2022-11-24T00:27:58.883Z,3.88
2022-11-24T00:28:58.889Z,3.90
2022-11-24T00:29:58.865Z,3.85
2022-11-24T00:30:58.896Z,3.81
2022-11-24T00:31:58.844Z,3.80
2022-11-24T00:32:58.829Z,3.84
2022-11-24T00:33:58.847Z,3.85
2022-11-24T00:34:58.810Z,3.85
2022-11-24T00:35:58.792Z,3.91
2022-11-24T00:36:58.785Z,3.81
2022-11-24T00:37:58.779Z,3.88
2022-11-24T00:38:58.789Z,3.84
2022-11-24T00:39:58.771Z,3.92
2022-11-24T00:40:58.747Z,3.85
2022-11-24T00:41:58.728Z,3.94
2022-11-24T00:42:58.724Z,3.98
2022-11-24T00:43:58.730Z,3.91
2022-11-24T00:44:58.724Z,3.96
2022-11-24T00:45:58.826Z,3.98
2022-11-24T00:46:58.870Z,3.92
2022-11-24T00:47:58.670Z,3.87
2022-11-24T00:48:58.655Z,3.91
2022-11-24T00:49:58.669Z,3.90
2022-11-24T00:50:58.633Z,3.88
2022-11-24T00:51:58.628Z,3.87
2022-11-24T00:52:58.620Z,3.96
2022-11-24T00:53:58.606Z,3.88
2022-11-24T00:54:58.613Z,3.82
2022-11-24T00:55:58.604Z,3.90
2022-11-24T00:56:58.570Z,3.96
2022-11-24T00:57:58.558Z,3.91
2022-11-24T00:58:58.553Z,3.91
2022-11-24T00:59:58.561Z,3.85
2022-11-24T01:00:58.571Z,3.98
2022-11-24T01:01:58.605Z,3.85
2022-11-24T01:02:58.562Z,3.96
2022-11-24T01:03:58.492Z,4.00
2022-11-24T01:04:58.504Z,3.91
2022-11-24T01:05:58.492Z,3.88
2022-11-24T01:06:58.469Z,4.02
2022-11-24T01:07:58.448Z,3.92
2022-11-24T01:08:58.439Z,3.98
2022-11-24T01:09:58.431Z,4.00
2022-11-24T01:10:58.435Z,3.96
2022-11-24T01:11:58.428Z,3.92
2022-11-24T01:12:58.407Z,3.96
2022-11-24T01:13:58.386Z,3.94
2022-11-24T01:14:58.382Z,3.98
2022-11-24T01:15:58.420Z,3.94
2022-11-24T01:16:58.357Z,3.98
2022-11-24T01:17:58.344Z,3.99
2022-11-24T01:18:58.340Z,3.99
2022-11-24T01:19:58.327Z,3.98
2022-11-24T01:20:58.331Z,3.98
2022-11-24T01:21:58.305Z,4.00
2022-11-24T01:22:58.293Z,4.00
2022-11-24T01:23:58.276Z,4.03
2022-11-24T01:24:58.270Z,4.10
2022-11-24T01:25:58.290Z,4.00
2022-11-24T01:26:58.246Z,4.03
2022-11-24T01:27:58.255Z,4.03
2022-11-24T01:28:58.228Z,3.94
2022-11-24T01:29:58.215Z,4.08
2022-11-24T01:30:58.285Z,4.08
2022-11-24T01:31:58.197Z,4.06
2022-11-24T01:32:58.179Z,4.03
2022-11-24T01:33:58.166Z,4.03
2022-11-24T01:34:58.160Z,4.10
2022-11-24T01:35:58.174Z,4.03
2022-11-24T01:36:58.157Z,4.02
2022-11-24T01:37:58.123Z,4.08
2022-11-24T01:38:58.115Z,4.03
2022-11-24T01:39:58.109Z,4.08
2022-11-24T01:40:58.266Z,4.08
2022-11-24T01:41:58.084Z,4.08
2022-11-24T01:42:58.089Z,4.12
2022-11-24T01:43:58.083Z,4.05
2022-11-24T01:44:58.052Z,4.05
2022-11-24T01:45:58.094Z,4.05
2022-11-24T01:46:58.047Z,4.08
2022-11-24T01:47:58.020Z,4.09
2022-11-24T01:48:58.011Z,4.10
2022-11-24T01:49:58.003Z,4.10
2022-11-24T01:50:57.984Z,4.12
2022-11-24T01:51:58.003Z,4.10
2022-11-24T01:52:57.966Z,4.10
2022-11-24T01:53:57.952Z,4.10
2022-11-24T01:54:57.940Z,4.12
2022-11-24T01:55:57.932Z,4.09
2022-11-24T01:56:57.941Z,4.09
2022-11-24T01:57:57.911Z,4.10
2022-11-24T01:58:57.905Z,4.17
2022-11-24T01:59:57.912Z,4.16
2022-11-24T02:00:57.876Z,4.16
2022-11-24T02:01:57.916Z,4.12
2022-11-24T02:02:57.944Z,4.13
2022-11-24T02:03:57.848Z,4.13
2022-11-24T02:04:57.836Z,4.17
2022-11-24T02:05:57.825Z,4.13
2022-11-24T02:06:57.833Z,4.12
2022-11-24T02:07:57.799Z,4.16
2022-11-24T02:08:57.787Z,4.20
2022-11-24T02:09:57.773Z,4.17
2022-11-24T02:10:57.765Z,4.21
2022-11-24T02:11:57.786Z,4.21
2022-11-24T02:12:57.749Z,4.24
2022-11-24T02:13:57.737Z,4.21
2022-11-24T02:14:57.723Z,4.21
2022-11-24T02:15:57.851Z,4.18
2022-11-24T02:16:57.728Z,4.23
2022-11-24T02:17:57.691Z,4.23
2022-11-24T02:18:57.677Z,4.21
2022-11-24T02:19:57.673Z,4.20
2022-11-24T02:20:57.658Z,4.21
2022-11-24T02:21:57.671Z,4.18
2022-11-24T02:22:57.641Z,4.21
2022-11-24T02:23:57.625Z,4.21
2022-11-24T02:24:57.617Z,4.18
2022-11-24T02:25:57.607Z,4.20
2022-11-24T02:26:57.620Z,4.20
2022-11-24T02:27:57.586Z,4.21
2022-11-24T02:28:57.569Z,4.24
2022-11-24T02:29:57.559Z,4.24
2022-11-24T02:30:57.599Z,4.23
2022-11-24T02:31:57.583Z,4.27
2022-11-24T02:32:57.530Z,4.28
2022-11-24T02:33:57.516Z,4.21
2022-11-24T02:34:57.509Z,4.27
2022-11-24T02:35:57.499Z,4.21
2022-11-24T02:36:57.513Z,4.26
2022-11-24T02:37:57.470Z,4.28
2022-11-24T02:38:57.482Z,4.23
2022-11-24T02:39:57.449Z,4.24
2022-11-24T02:40:57.465Z,4.24
2022-11-24T02:41:57.456Z,4.30
2022-11-24T02:42:57.417Z,4.28
2022-11-24T02:43:57.407Z,4.20
2022-11-24T02:44:57.402Z,4.20
2022-11-24T02:45:57.480Z,4.30
2022-11-24T02:46:57.391Z,4.26
2022-11-24T02:47:57.385Z,4.28
2022-11-24T02:48:57.378Z,4.30
2022-11-24T02:49:57.346Z,4.30
2022-11-24T02:50:57.335Z,4.28
2022-11-24T02:51:57.322Z,4.31
2022-11-24T02:52:57.307Z,4.26
2022-11-24T02:53:57.334Z,4.18
2022-11-24T02:54:57.288Z,4.20
2022-11-24T02:55:57.279Z,4.27
2022-11-24T02:56:57.271Z,4.30
2022-11-24T02:57:57.296Z,4.26
2022-11-24T02:58:57.265Z,4.24
2022-11-24T02:59:57.236Z,4.31
2022-11-24T03:00:57.232Z,4.28
2022-11-24T03:01:57.325Z,4.30
2022-11-24T03:02:57.292Z,4.28
2022-11-24T03:03:57.219Z,4.30
2022-11-24T03:04:57.187Z,4.28
2022-11-24T03:05:57.170Z,4.28
2022-11-24T03:06:57.161Z,4.28
2022-11-24T03:07:57.240Z,4.28
2022-11-24T03:08:57.138Z,4.30
2022-11-24T03:09:57.131Z,4.28
2022-11-24T03:10:57.117Z,4.26
2022-11-24T03:11:57.106Z,4.35
2022-11-24T03:12:57.099Z,4.27
2022-11-24T03:13:57.105Z,4.38
2022-11-24T03:14:57.073Z,4.34
2022-11-24T03:15:57.139Z,4.35
2022-11-24T03:16:57.050Z,4.27
2022-11-24T03:17:57.044Z,4.30
2022-11-24T03:18:57.051Z,4.35
2022-11-24T03:20:01.458Z,4.34
2022-11-24T03:20:58.003Z,4.30
2022-11-24T03:21:57.003Z,4.35
2022-11-24T03:22:56.983Z,4.38
2022-11-24T03:23:56.997Z,4.31
2022-11-24T03:24:56.963Z,4.35
2022-11-24T03:25:56.951Z,4.38
2022-11-24T03:26:56.984Z,4.34
2022-11-24T03:27:56.943Z,4.35
2022-11-24T03:28:56.939Z,4.35
2022-11-24T03:29:56.909Z,4.30
2022-11-24T03:30:56.981Z,4.30
2022-11-24T03:31:56.895Z,4.38
2022-11-24T03:32:56.878Z,4.41
2022-11-24T03:33:56.883Z,4.34
2022-11-24T03:34:56.854Z,4.36
2022-11-24T03:35:56.865Z,4.30
2022-11-24T03:36:56.831Z,4.30
2022-11-24T03:37:56.851Z,4.36
2022-11-24T03:38:56.832Z,4.35
2022-11-24T03:39:56.804Z,4.30
2022-11-24T03:40:56.790Z,4.30
2022-11-24T03:41:56.779Z,4.31
2022-11-24T03:42:56.765Z,4.31
2022-11-24T03:43:56.800Z,4.30
2022-11-24T03:44:56.755Z,4.31
2022-11-24T03:45:56.785Z,4.38
2022-11-24T03:46:56.726Z,4.36
2022-11-24T03:47:56.715Z,4.35
2022-11-24T03:48:56.700Z,4.31
2022-11-24T03:49:56.709Z,4.35
2022-11-24T03:50:56.679Z,4.39
2022-11-24T03:51:56.689Z,4.31
2022-11-24T03:52:56.661Z,4.34
2022-11-24T03:53:56.650Z,4.41
2022-11-24T03:54:56.662Z,4.36
2022-11-24T03:55:56.625Z,4.36
2022-11-24T03:56:56.617Z,4.41
2022-11-24T03:57:56.605Z,4.38
2022-11-24T03:58:56.592Z,4.28
2022-11-24T03:59:56.608Z,4.27
2022-11-24T04:00:56.567Z,4.36
2022-11-24T04:01:56.656Z,4.34
2022-11-24T04:02:56.643Z,4.36
2022-11-24T04:03:56.548Z,4.45
2022-11-24T04:04:56.548Z,4.39
2022-11-24T04:05:56.512Z,4.38
2022-11-24T04:06:56.512Z,4.28
2022-11-24T04:07:56.513Z,4.41
2022-11-24T04:08:56.483Z,4.41
2022-11-24T04:09:56.499Z,4.41
2022-11-24T04:10:56.466Z,4.39
2022-11-24T04:11:56.452Z,4.36
2022-11-24T04:12:56.448Z,4.45
2022-11-24T04:13:56.439Z,4.38
2022-11-24T04:14:56.439Z,4.42
2022-11-24T04:15:56.450Z,4.39
2022-11-24T04:16:56.396Z,4.34
2022-11-24T04:17:56.391Z,4.45
2022-11-24T04:18:56.377Z,4.38
2022-11-24T04:19:56.393Z,4.34
2022-11-24T04:20:56.350Z,4.41
2022-11-24T04:21:56.342Z,4.46
2022-11-24T04:22:56.331Z,4.38
2022-11-24T04:23:56.344Z,4.45
2022-11-24T04:24:56.314Z,4.30
2022-11-24T04:25:56.354Z,4.46
2022-11-24T04:26:56.287Z,4.42
2022-11-24T04:27:56.303Z,4.43
2022-11-24T04:28:56.275Z,4.38
2022-11-24T04:29:56.258Z,4.41
2022-11-24T04:30:56.332Z,4.39
2022-11-24T04:31:56.234Z,4.43
2022-11-24T04:32:56.244Z,4.38
2022-11-24T04:33:56.217Z,4.42
2022-11-24T04:34:56.202Z,4.39
2022-11-24T04:35:56.191Z,4.41
2022-11-24T04:36:56.181Z,4.34
2022-11-24T04:37:56.197Z,4.31
2022-11-24T04:39:24.845Z,4.48
2022-11-24T04:39:57.166Z,4.30
2022-11-24T04:40:56.136Z,4.34
2022-11-24T04:41:56.124Z,4.39
2022-11-24T04:42:56.136Z,4.48
2022-11-24T04:43:56.104Z,4.41
2022-11-24T04:44:56.088Z,4.43
2022-11-24T04:45:56.083Z,4.48
2022-11-24T04:46:56.141Z,4.46
2022-11-24T04:47:56.082Z,4.45
2022-11-24T04:48:56.050Z,4.45
2022-11-24T04:49:56.039Z,4.35
2022-11-24T04:50:56.028Z,4.43
2022-11-24T04:51:56.018Z,4.35
2022-11-24T04:52:56.026Z,4.34
2022-11-24T04:53:55.994Z,4.41
2022-11-24T04:54:55.981Z,4.28
2022-11-24T04:55:55.994Z,4.42
2022-11-24T04:56:55.966Z,4.45
2022-11-24T04:57:55.970Z,4.43
2022-11-24T04:58:55.959Z,4.31
2022-11-24T04:59:55.934Z,4.36
2022-11-24T05:00:55.917Z,4.46
2022-11-24T05:01:55.975Z,4.36
2022-11-24T05:02:55.895Z,4.36
2022-11-24T05:03:55.993Z,4.46
2022-11-24T05:04:55.876Z,4.45
2022-11-24T05:05:55.869Z,4.39
2022-11-24T05:06:55.851Z,4.42
2022-11-24T05:07:55.905Z,4.42
2022-11-24T05:08:55.838Z,4.39
2022-11-24T05:09:59.616Z,4.38
2022-11-24T05:10:55.796Z,4.34
2022-11-24T05:11:55.823Z,4.42
2022-11-24T05:12:55.772Z,4.35
2022-11-24T05:13:55.759Z,4.38
2022-11-24T05:14:55.750Z,4.42
2022-11-24T05:15:55.782Z,4.43
2022-11-24T05:16:55.752Z,4.43
2022-11-24T05:17:55.716Z,4.31
2022-11-24T05:18:55.709Z,4.39
2022-11-24T05:19:55.694Z,4.46
2022-11-24T05:20:55.686Z,4.35
2022-11-24T05:21:55.695Z,4.43
2022-11-24T05:22:55.665Z,4.51
2022-11-24T05:23:55.673Z,4.42
2022-11-24T05:24:55.644Z,4.39
2022-11-24T05:25:55.630Z,4.34
2022-11-24T05:26:55.620Z,4.49
2022-11-24T05:27:55.629Z,4.35
2022-11-24T05:28:55.618Z,4.42
2022-11-24T05:29:55.586Z,4.38
2022-11-24T05:30:55.610Z,4.46
2022-11-24T05:31:55.564Z,4.43
2022-11-24T05:32:55.551Z,4.51
2022-11-24T05:33:55.567Z,4.38
2022-11-24T05:34:55.548Z,4.41
2022-11-24T05:35:55.551Z,4.43
2022-11-24T05:36:55.511Z,4.48
2022-11-24T05:37:55.504Z,4.46
2022-11-24T05:38:55.500Z,4.43
2022-11-24T05:39:55.484Z,4.41
2022-11-24T05:40:55.488Z,4.36
2022-11-24T05:41:55.458Z,4.42
2022-11-24T05:42:55.441Z,4.39
2022-11-24T05:43:55.469Z,4.36
2022-11-24T05:44:55.422Z,4.45
2022-11-24T05:45:55.450Z,4.36
2022-11-24T05:46:55.530Z,4.39
2022-11-24T05:47:55.394Z,4.42
2022-11-24T05:48:55.403Z,4.43
2022-11-24T05:49:55.495Z,4.41
2022-11-24T05:50:55.354Z,4.36
2022-11-24T05:51:55.347Z,4.41
2022-11-24T05:52:55.355Z,4.45
2022-11-24T05:53:55.329Z,4.42
2022-11-24T05:54:55.316Z,4.49
2022-11-24T05:55:55.333Z,4.38
2022-11-24T05:56:55.299Z,4.46
2022-11-24T05:57:55.283Z,4.41
2022-11-24T05:58:55.289Z,4.45
2022-11-24T05:59:55.553Z,4.31
2022-11-24T06:00:55.252Z,4.49
2022-11-24T06:01:55.348Z,4.42
2022-11-24T06:02:55.356Z,4.41
2022-11-24T06:03:55.219Z,4.42
2022-11-24T06:04:55.241Z,4.45
2022-11-24T06:05:55.199Z,4.45
2022-11-24T06:06:55.184Z,4.38
2022-11-24T06:07:55.193Z,4.42
2022-11-24T06:08:55.163Z,4.31
2022-11-24T06:09:55.443Z,4.35
2022-11-24T06:10:55.139Z,4.41
2022-11-24T06:11:55.133Z,4.41
2022-11-24T06:12:55.142Z,4.39
2022-11-24T06:13:55.161Z,4.46
2022-11-24T06:14:55.102Z,4.31
2022-11-24T06:15:55.115Z,4.42
2022-11-24T06:16:55.143Z,4.42
2022-11-24T06:17:55.096Z,4.39
2022-11-24T06:18:55.057Z,4.43
2022-11-24T06:19:55.048Z,4.46
2022-11-24T06:21:10.364Z,4.46
2022-11-24T06:21:56.020Z,4.36
2022-11-24T06:22:55.012Z,4.42
2022-11-24T06:23:55.028Z,4.41
2022-11-24T06:24:54.995Z,4.41
2022-11-24T06:25:54.988Z,4.39
2022-11-24T06:26:54.978Z,4.39
2022-11-24T06:27:54.961Z,4.49
2022-11-24T06:28:54.968Z,4.46
2022-11-24T06:29:54.959Z,4.38
2022-11-24T06:30:54.923Z,4.36
2022-11-24T06:31:55.059Z,4.34
2022-11-24T06:32:54.907Z,4.42
2022-11-24T06:33:54.968Z,4.41
2022-11-24T06:34:54.882Z,4.39
2022-11-24T06:35:54.876Z,4.43
2022-11-24T06:36:54.858Z,4.38
2022-11-24T06:37:54.855Z,4.38
2022-11-24T06:38:54.837Z,4.43
2022-11-24T06:39:54.853Z,4.42
2022-11-24T06:40:54.815Z,4.48
2022-11-24T06:41:54.805Z,4.36
2022-11-24T06:42:54.855Z,4.36
2022-11-24T06:43:54.787Z,4.43
2022-11-24T06:44:54.797Z,4.41
2022-11-24T06:45:54.797Z,4.35
2022-11-24T06:46:54.751Z,4.41
2022-11-24T06:47:54.769Z,4.45
2022-11-24T06:48:54.730Z,4.49
2022-11-24T06:49:54.746Z,4.43
2022-11-24T06:50:54.712Z,4.43
2022-11-24T06:51:54.702Z,4.43
2022-11-24T06:52:54.687Z,4.45
2022-11-24T06:53:54.699Z,4.43
2022-11-24T06:54:54.665Z,4.41
2022-11-24T06:55:54.654Z,4.43
2022-11-24T06:56:54.641Z,4.39
2022-11-24T06:57:54.633Z,4.43
2022-11-24T06:58:54.641Z,4.39
2022-11-24T06:59:54.639Z,4.41
2022-11-24T07:00:54.661Z,4.39
2022-11-24T07:01:54.589Z,4.41
2022-11-24T07:02:54.613Z,4.38
2022-11-24T07:03:54.615Z,4.39
2022-11-24T07:04:54.551Z,4.38
2022-11-24T07:05:54.548Z,4.43
2022-11-24T07:06:54.533Z,4.48
2022-11-24T07:07:54.619Z,4.45
2022-11-24T07:08:54.536Z,4.41
2022-11-24T07:09:54.506Z,4.39
2022-11-24T07:10:54.493Z,4.41
2022-11-24T07:11:54.484Z,4.38
2022-11-24T07:12:54.473Z,4.41
2022-11-24T07:13:59.734Z,4.38
2022-11-24T07:14:55.440Z,4.41
2022-11-24T07:15:54.438Z,4.42
2022-11-24T07:16:54.509Z,4.43
2022-11-24T07:17:54.420Z,4.45
2022-11-24T07:18:54.427Z,4.42
2022-11-24T07:19:54.414Z,4.48
2022-11-24T07:20:54.380Z,4.38
2022-11-24T07:21:54.374Z,4.38
2022-11-24T07:22:54.360Z,4.42
2022-11-24T07:23:54.384Z,4.46
2022-11-24T07:24:54.348Z,4.51
2022-11-24T07:25:54.327Z,4.48
2022-11-24T07:26:54.316Z,4.45
2022-11-24T07:27:54.309Z,4.42
2022-11-24T07:28:54.314Z,4.46
2022-11-24T07:29:54.311Z,4.39
2022-11-24T07:30:54.274Z,4.46
2022-11-24T07:31:54.287Z,4.49
2022-11-24T07:32:54.259Z,4.41
2022-11-24T07:33:54.267Z,4.42
2022-11-24T07:34:54.247Z,4.43
2022-11-24T07:35:54.242Z,4.48
2022-11-24T07:36:54.213Z,4.49
2022-11-24T07:37:54.199Z,4.48
2022-11-24T07:38:54.185Z,4.48
2022-11-24T07:39:54.198Z,4.48
2022-11-24T07:40:54.162Z,4.42
2022-11-24T07:41:54.152Z,4.48
2022-11-24T07:42:54.150Z,4.41
2022-11-24T07:43:54.132Z,4.48
2022-11-24T07:44:54.142Z,4.49
2022-11-24T07:45:54.161Z,4.43
2022-11-24T07:46:54.120Z,4.48
2022-11-24T07:47:54.091Z,4.45
2022-11-24T07:48:54.094Z,4.43
2022-11-24T07:49:54.067Z,4.48
2022-11-24T07:50:56.023Z,4.46
2022-11-24T07:51:54.097Z,4.48
2022-11-24T07:52:54.034Z,4.48
2022-11-24T07:53:54.024Z,4.56
2022-11-24T07:54:54.016Z,4.54
2022-11-24T07:55:54.003Z,4.43
2022-11-24T07:56:54.011Z,4.43
2022-11-24T07:57:53.984Z,4.45
2022-11-24T07:58:53.965Z,4.45
2022-11-24T07:59:53.983Z,4.53
2022-11-24T08:00:53.950Z,4.51
2022-11-24T08:01:54.014Z,4.51
2022-11-24T08:02:53.922Z,4.48
2022-11-24T08:03:54.015Z,4.48
2022-11-24T08:04:53.904Z,4.46
2022-11-24T08:06:22.295Z,4.57
2022-11-24T08:06:54.885Z,4.57
2022-11-24T08:07:53.941Z,4.54
2022-11-24T08:08:53.863Z,4.57
2022-11-24T08:09:53.849Z,4.56
2022-11-24T08:10:53.871Z,4.51
2022-11-24T08:11:53.836Z,4.59
2022-11-24T08:12:53.814Z,4.63
2022-11-24T08:13:53.818Z,4.54
2022-11-24T08:14:53.793Z,4.59
2022-11-24T08:15:53.816Z,4.56
2022-11-24T08:16:53.861Z,4.59
2022-11-24T08:17:53.767Z,4.54
2022-11-24T08:18:53.746Z,4.59
2022-11-24T08:19:53.745Z,4.66
2022-11-24T08:20:53.735Z,4.54
2022-11-24T08:21:53.737Z,4.54
2022-11-24T08:22:53.709Z,4.61
2022-11-24T08:23:53.716Z,4.61
2022-11-24T08:24:53.685Z,4.57
2022-11-24T08:25:56.856Z,4.57
2022-11-24T08:26:53.686Z,4.61
2022-11-24T08:27:53.656Z,4.63
2022-11-24T08:28:53.641Z,4.63
2022-11-24T08:29:53.660Z,4.61
2022-11-24T08:30:53.619Z,4.57
2022-11-24T08:31:53.630Z,4.54
2022-11-24T08:32:53.624Z,4.63
2022-11-24T08:33:53.589Z,4.59
2022-11-24T08:34:59.497Z,4.60
2022-11-24T08:35:54.564Z,4.63
2022-11-24T08:36:53.554Z,4.60
2022-11-24T08:37:53.573Z,4.64
2022-11-24T08:38:53.531Z,4.63
2022-11-24T08:39:53.593Z,4.60
2022-11-24T08:40:53.510Z,4.61
2022-11-24T08:41:53.499Z,4.63
2022-11-24T08:42:53.488Z,4.71
2022-11-24T08:43:53.495Z,4.63
2022-11-24T08:44:58.919Z,4.66
2022-11-24T08:45:54.508Z,4.69
2022-11-24T08:46:53.452Z,4.67
2022-11-24T08:47:53.438Z,4.64
2022-11-24T08:48:53.476Z,4.66
2022-11-24T08:49:53.416Z,4.75
2022-11-24T08:50:53.408Z,4.82
2022-11-24T08:51:53.388Z,4.77
2022-11-24T08:52:53.380Z,4.69
2022-11-24T08:53:53.392Z,4.72
2022-11-24T08:54:53.354Z,4.71
2022-11-24T08:55:53.381Z,4.71
2022-11-24T08:56:53.395Z,4.69
2022-11-24T08:57:53.327Z,4.69
2022-11-24T08:58:53.435Z,4.72
2022-11-24T08:59:53.306Z,4.74
2022-11-24T09:00:53.295Z,4.74
2022-11-24T09:01:53.343Z,4.79
2022-11-24T09:02:53.272Z,4.69
2022-11-24T09:03:53.348Z,4.72
2022-11-24T09:04:53.313Z,4.74
2022-11-24T09:05:53.331Z,4.75
2022-11-24T09:06:53.233Z,4.77
2022-11-24T09:07:53.272Z,4.77
2022-11-24T09:08:53.227Z,4.77
2022-11-24T09:09:53.198Z,4.75
2022-11-24T09:10:53.176Z,4.79
2022-11-24T09:11:53.206Z,4.82
2022-11-24T09:12:53.165Z,4.78
2022-11-24T09:13:53.166Z,4.75
2022-11-24T09:14:53.136Z,4.75
2022-11-24T09:15:53.131Z,4.78
2022-11-24T09:16:53.205Z,4.82
2022-11-24T09:17:53.108Z,4.83
2022-11-24T09:18:53.161Z,4.85
2022-11-24T09:19:53.086Z,4.78
2022-11-24T09:20:53.073Z,4.75
2022-11-24T09:21:53.065Z,4.85
2022-11-24T09:22:53.050Z,4.93
2022-11-24T09:23:53.066Z,4.93
2022-11-24T09:24:53.030Z,4.96
2022-11-24T09:25:53.022Z,4.77
2022-11-24T09:26:53.010Z,4.86
2022-11-24T09:27:53.019Z,4.82
2022-11-24T09:28:53.008Z,4.91
2022-11-24T09:29:52.976Z,4.91
2022-11-24T09:30:53.018Z,4.85
2022-11-24T09:31:52.955Z,4.94
2022-11-24T09:32:52.941Z,4.93
2022-11-24T09:33:52.966Z,4.98
2022-11-24T09:34:52.922Z,4.97
2022-11-24T09:35:52.938Z,4.96
2022-11-24T09:36:52.895Z,4.93
2022-11-24T09:37:52.890Z,4.96
2022-11-24T09:38:52.901Z,5.04
2022-11-24T09:39:52.870Z,4.93
2022-11-24T09:40:52.851Z,4.93
2022-11-24T09:41:52.860Z,4.94
2022-11-24T09:42:53.823Z,4.97
2022-11-24T09:43:52.845Z,4.96
2022-11-24T09:44:52.813Z,5.03
2022-11-24T09:46:08.331Z,5.12
2022-11-24T09:46:53.940Z,5.07
2022-11-24T09:47:52.779Z,4.98
2022-11-24T09:48:52.772Z,5.15
2022-11-24T09:49:52.810Z,5.11
2022-11-24T09:50:52.750Z,5.06
2022-11-24T09:51:52.753Z,5.06
2022-11-24T09:52:52.724Z,5.06
2022-11-24T09:53:52.716Z,5.11
2022-11-24T09:54:52.730Z,5.04
2022-11-24T09:55:52.690Z,5.09
2022-11-24T09:56:52.704Z,5.18
2022-11-24T09:57:52.678Z,5.09
2022-11-24T09:58:52.663Z,5.12
2022-11-24T09:59:52.673Z,5.11
2022-11-24T10:00:52.633Z,5.07
2022-11-24T10:01:52.741Z,5.14
2022-11-24T10:02:52.626Z,5.15
2022-11-24T10:03:52.607Z,5.19
2022-11-24T10:04:52.687Z,5.15
2022-11-24T10:05:52.583Z,5.19
2022-11-24T10:06:52.602Z,5.18
2022-11-24T10:07:52.662Z,5.21
2022-11-24T10:08:52.553Z,5.21
2022-11-24T10:09:52.539Z,5.29
2022-11-24T10:10:52.530Z,5.18
2022-11-24T10:11:52.547Z,5.22
2022-11-24T10:12:52.509Z,5.27
2022-11-24T10:13:52.527Z,5.25
2022-11-24T10:14:52.487Z,5.32
2022-11-24T10:15:52.549Z,5.25
2022-11-24T10:16:52.464Z,5.39
2022-11-24T10:17:52.457Z,5.27
2022-11-24T10:18:52.446Z,5.32
2022-11-24T10:19:52.453Z,5.32
2022-11-24T10:20:52.449Z,5.37
2022-11-24T10:21:52.413Z,5.39
2022-11-24T10:22:52.409Z,5.37
2022-11-24T10:23:52.391Z,5.39
2022-11-24T10:24:52.394Z,5.47
2022-11-24T10:25:52.369Z,5.47
2022-11-24T10:26:52.360Z,5.43
2022-11-24T10:27:52.347Z,5.47
2022-11-24T10:28:52.352Z,5.43
2022-11-24T10:29:52.342Z,5.51
2022-11-24T10:30:52.362Z,5.54
2022-11-24T10:31:52.323Z,5.55
2022-11-24T10:32:52.292Z,5.54
2022-11-24T10:33:52.294Z,5.58
2022-11-24T10:34:52.300Z,5.57
2022-11-24T10:35:52.276Z,5.65
2022-11-24T10:36:52.259Z,5.65
2022-11-24T10:37:52.241Z,5.66
2022-11-24T10:38:52.235Z,5.59
2022-11-24T10:39:57.112Z,5.62
2022-11-24T10:40:57.818Z,5.69
2022-11-24T10:41:53.198Z,5.66
2022-11-24T10:42:52.195Z,5.70
2022-11-24T10:43:52.191Z,5.70
2022-11-24T10:44:52.195Z,5.69
2022-11-24T10:45:52.231Z,5.73
2022-11-24T10:46:52.188Z,5.75
2022-11-24T10:47:52.197Z,5.75
2022-11-24T10:48:52.124Z,5.77
2022-11-24T10:49:52.118Z,5.75
2022-11-24T10:50:52.130Z,5.82
2022-11-24T10:51:52.086Z,5.80
2022-11-24T10:52:52.085Z,5.84
2022-11-24T10:53:52.092Z,5.90
2022-11-24T10:54:52.061Z,5.88
2022-11-24T10:55:52.041Z,5.93
2022-11-24T10:56:52.037Z,5.93
2022-11-24T10:57:52.026Z,5.80
2022-11-24T10:58:52.036Z,5.88
2022-11-24T10:59:52.029Z,5.87
2022-11-24T11:00:51.997Z,5.97
2022-11-24T11:01:52.087Z,6.02
2022-11-24T11:02:52.052Z,5.94
2022-11-24T11:03:51.981Z,6.02
2022-11-24T11:04:51.972Z,6.03
2022-11-24T11:05:51.972Z,6.00
2022-11-24T11:06:51.930Z,5.94
2022-11-24T11:07:51.972Z,6.08
2022-11-24T11:08:51.908Z,6.03
2022-11-24T11:09:51.912Z,6.09
2022-11-24T11:10:51.906Z,6.13
2022-11-24T11:11:51.872Z,6.08
2022-11-24T11:12:51.924Z,6.18
2022-11-24T11:13:51.855Z,6.16
2022-11-24T11:14:51.841Z,6.11
2022-11-24T11:15:51.959Z,6.12
2022-11-24T11:16:51.826Z,6.16
2022-11-24T11:17:51.810Z,6.11
2022-11-24T11:18:51.802Z,6.15
2022-11-24T11:19:55.523Z,6.21
2022-11-24T11:20:52.803Z,6.13
2022-11-24T11:21:51.764Z,6.18
2022-11-24T11:22:51.759Z,6.15
2022-11-24T11:23:51.751Z,6.18
2022-11-24T11:24:51.742Z,6.30
2022-11-24T11:25:51.742Z,6.25
2022-11-24T11:26:51.716Z,6.27
2022-11-24T11:27:51.709Z,6.34
2022-11-24T11:28:52.184Z,6.30
2022-11-24T11:34:12.481Z,6.32
2022-11-24T11:34:52.650Z,6.28
2022-11-24T11:35:51.631Z,6.38
2022-11-24T11:36:51.602Z,6.28
2022-11-24T11:37:51.617Z,6.45
2022-11-24T11:38:51.583Z,6.38
2022-11-24T11:39:51.576Z,6.34
2022-11-24T11:40:51.562Z,6.35
2022-11-24T11:41:51.555Z,6.42
2022-11-24T11:43:02.523Z,6.43
2022-11-24T11:43:52.529Z,6.37
2022-11-24T11:44:51.522Z,6.37
2022-11-24T11:45:51.577Z,6.42
2022-11-24T11:46:51.581Z,6.38
2022-11-24T11:47:51.485Z,6.45
2022-11-24T11:48:51.476Z,6.45
2022-11-24T11:49:51.463Z,6.43
2022-11-24T11:51:52.475Z,6.47
2022-11-24T11:52:51.430Z,6.46
2022-11-24T11:53:51.450Z,6.49
2022-11-24T11:54:51.410Z,6.52
2022-11-24T11:55:51.414Z,6.52
2022-11-24T11:56:51.388Z,6.47
2022-11-24T11:57:51.372Z,6.45
2022-11-24T11:58:51.389Z,6.46
2022-11-24T11:59:51.350Z,6.53
2022-11-24T12:00:51.361Z,6.52
2022-11-24T12:01:51.339Z,6.61
2022-11-24T12:02:53.682Z,6.53
2022-11-24T12:03:51.457Z,6.57
2022-11-24T12:04:51.305Z,6.55
2022-11-24T12:05:51.310Z,6.56
2022-11-24T12:06:51.279Z,6.61
2022-11-24T12:07:51.323Z,6.52
2022-11-24T12:09:18.673Z,6.50
2022-11-24T12:09:52.243Z,6.63
2022-11-24T12:10:51.254Z,6.65
2022-11-24T12:11:51.219Z,6.65
2022-11-24T12:12:51.230Z,6.64
2022-11-24T12:13:51.198Z,6.67
2022-11-24T12:14:51.191Z,6.64
2022-11-24T12:15:51.259Z,6.82
2022-11-24T12:16:51.166Z,6.86
2022-11-24T12:17:51.147Z,6.88
2022-11-24T12:18:59.021Z,6.85
2022-11-24T12:19:52.128Z,7.00
2022-11-24T12:20:51.144Z,6.99
2022-11-24T12:21:51.109Z,6.93
2022-11-24T12:22:51.121Z,6.96
2022-11-24T12:23:51.110Z,6.93
2022-11-24T12:24:51.116Z,7.01
2022-11-24T12:25:51.062Z,6.93
2022-11-24T12:26:51.052Z,6.97
2022-11-24T12:27:51.063Z,6.99
2022-11-24T12:28:51.032Z,7.03
2022-11-24T12:29:51.018Z,7.00
2022-11-24T12:30:51.064Z,7.00
2022-11-24T12:31:51.071Z,6.99
2022-11-24T12:32:50.992Z,6.93
2022-11-24T12:33:54.178Z,7.04
2022-11-24T12:34:51.978Z,7.01
2022-11-24T12:35:50.949Z,7.01
2022-11-24T12:36:50.975Z,7.04
2022-11-24T12:37:50.930Z,7.03
2022-11-24T12:38:50.919Z,7.04
2022-11-24T12:39:50.925Z,7.07
2022-11-24T12:40:50.900Z,7.04
2022-11-24T12:41:50.884Z,6.99
2022-11-24T12:42:50.899Z,6.93
2022-11-24T12:43:50.860Z,7.06
2022-11-24T12:44:50.855Z,6.99
2022-11-24T12:45:50.862Z,7.04
2022-11-24T12:46:50.879Z,7.06
2022-11-24T12:47:50.819Z,7.01
2022-11-24T12:48:50.808Z,7.03
2022-11-24T12:49:50.793Z,7.01
2022-11-24T12:50:50.808Z,7.03
2022-11-24T12:51:50.772Z,7.08
2022-11-24T12:52:55.600Z,7.10
2022-11-24T12:53:51.752Z,7.03
2022-11-24T12:54:50.742Z,7.01
2022-11-24T12:55:50.781Z,7.04
2022-11-24T12:56:50.739Z,7.00
2022-11-24T12:57:50.707Z,7.07
2022-11-24T12:58:50.699Z,7.07
2022-11-24T12:59:50.691Z,7.15
2022-11-24T13:00:50.682Z,7.01
2022-11-24T13:01:50.892Z,7.03
2022-11-24T13:02:50.748Z,7.15
2022-11-24T13:03:50.644Z,7.11
2022-11-24T13:04:50.638Z,7.16
2022-11-24T13:05:50.621Z,7.16
2022-11-24T13:06:50.639Z,7.13
2022-11-24T13:07:50.637Z,7.13
2022-11-24T13:08:50.618Z,7.16
2022-11-24T13:09:50.578Z,7.16
2022-11-24T13:10:58.214Z,7.13
2022-11-24T13:11:51.580Z,7.11
2022-11-24T13:12:50.544Z,7.18
2022-11-24T13:13:50.551Z,7.18
2022-11-24T13:14:50.524Z,7.15
2022-11-24T13:16:01.661Z,7.18
2022-11-24T13:17:21.219Z,7.13
2022-11-24T13:18:05.494Z,7.22
2022-11-24T13:18:51.541Z,7.21
2022-11-24T13:19:50.473Z,7.19
2022-11-24T13:20:50.453Z,7.19
2022-11-24T13:21:50.467Z,7.21
2022-11-24T13:22:50.436Z,7.21
2022-11-24T13:23:50.420Z,7.21